Weather at Anoka County-Blaine (Janes Field) Airport

Public forecast

Using degrees Fahrenheit for public forecast. Weather courtesy of forecast.io.

Current aviation weather report (METAR) for Anoka County-Blaine (Janes Field) Airport

Retrieved 2021/01/22 23:45 UTC (18 minutes ago):

KANE 222345Z COR 24003KT 10SM SCT200 M09/M16 A3024

Aviation forecast (TAF) for Anoka County-Blaine (Janes Field) Airport

Forecast is more than 12 hours old.

Retrieved 2018/02/05 00:21 UTC (3 years ago):

TAF KANE 052320Z 0600/0624 28008KT P6SM FEW025 FM060300 30005KT P6SM FEW250 FM061600 21005KT P6SM SCT250 AMD NOT SKED